Time;durP1;ratioP1;P1;durP2;ratioP2;P2;SDS_P1;SDS_P2;PMS_P1;PMS_P2;Temp;Humidity;BMP_temperature;BMP_pressure;BME280_temperature;BME280_humidity;BME280_pressure;Samples;Min_cycle;Max_cycle;Signal;HPM_P1;HPM_P2
2023/01/15 00:01:33;;;;;;;1.23;0.50;;;;;;;7.37;83.97;99946.94;5051522;27;96559;-28
2023/01/15 00:04:02;;;;;;;2.10;0.38;;;;;;;7.38;84.15;99954.03;5053344;27;96740;-29
2023/01/15 00:06:28;;;;;;;2.13;0.47;;;;;;;7.40;84.58;99959.34;5051206;27;100733;-30
2023/01/15 00:08:53;;;;;;;8.07;0.70;;;;;;;7.36;83.82;99953.28;5051515;27;101055;-29
2023/01/15 00:11:19;;;;;;;16.10;0.30;;;;;;;7.36;84.13;99941.63;5052928;27;96508;-30
2023/01/15 00:13:45;;;;;;;4.57;0.82;;;;;;;7.35;84.41;99948.84;5051330;27;96886;-29
2023/01/15 00:16:16;;;;;;;0.45;0.40;;;;;;;7.34;84.16;99955.22;5052068;27;97378;-29
2023/01/15 00:18:41;;;;;;;4.93;0.73;;;;;;;7.33;84.40;99940.00;5051195;27;100732;-29
2023/01/15 00:21:10;;;;;;;3.45;0.77;;;;;;;7.32;83.92;99940.13;5052906;27;96443;-29
2023/01/15 00:29:06;;;;;;;4.50;0.38;;;;;;;7.31;84.72;99946.44;5052260;27;97186;-29
2023/01/15 00:31:33;;;;;;;2.17;0.38;;;;;;;7.30;84.17;99936.66;5052599;27;96622;-29
2023/01/15 00:33:59;;;;;;;1.60;0.32;;;;;;;7.28;83.76;99933.19;5052635;27;96525;-29
2023/01/15 00:36:24;;;;;;;1.50;0.47;;;;;;;7.27;83.36;99928.75;5052134;27;97857;-29
2023/01/15 00:38:50;;;;;;;0.65;0.15;;;;;;;7.26;83.84;99924.34;5052099;27;99217;-29
2023/01/15 00:41:16;;;;;;;4.72;0.70;;;;;;;7.25;83.43;99936.94;5050579;27;96926;-29
2023/01/15 00:43:41;;;;;;;0.85;0.20;;;;;;;7.25;83.90;99934.25;5052612;27;96755;-28
2023/01/15 00:46:07;;;;;;;0.00;0.00;;;;;;;7.22;83.81;99926.34;5051809;27;105774;-30
2023/01/15 00:48:36;;;;;;;3.83;0.20;;;;;;;7.23;84.26;99945.09;5052072;27;99155;-31
2023/01/15 00:51:02;;;;;;;2.08;0.77;;;;;;;7.20;83.98;99922.91;5050968;27;96540;-29
2023/01/15 00:53:28;;;;;;;0.52;0.22;;;;;;;7.22;84.38;99934.41;5050847;27;96909;-29
2023/01/15 00:55:53;;;;;;;1.02;0.43;;;;;;;7.20;83.66;99931.84;5052169;27;97382;-29
2023/01/15 00:58:18;;;;;;;3.95;0.68;;;;;;;7.17;84.24;99928.44;5052532;27;97798;-29
2023/01/15 01:00:44;;;;;;;0.47;0.17;;;;;;;7.17;84.18;99928.44;5051775;27;99114;-29
2023/01/15 01:03:09;;;;;;;1.25;0.50;;;;;;;7.17;83.62;99936.53;5052033;27;96755;-29
2023/01/15 01:05:35;;;;;;;0.82;0.22;;;;;;;7.14;83.39;99928.66;5051339;27;106513;-31
2023/01/15 01:08:00;;;;;;;0.20;0.13;;;;;;;7.14;82.81;99942.97;5055330;27;104002;-29
2023/01/15 01:10:26;;;;;;;0.77;0.43;;;;;;;7.13;82.15;99954.72;5055824;27;96440;-28
2023/01/15 01:12:52;;;;;;;2.65;0.52;;;;;;;7.16;82.24;99949.13;5054303;27;96826;-29
2023/01/15 01:15:19;;;;;;;0.40;0.20;;;;;;;7.15;82.66;99930.38;5055608;27;97820;-29
2023/01/15 01:17:44;;;;;;;0.00;0.00;;;;;;;7.14;83.68;99929.50;5053817;27;100753;-28
2023/01/15 01:20:13;;;;;;;0.77;0.28;;;;;;;7.11;83.63;99953.94;5055656;27;96385;-29
2023/01/15 01:22:39;;;;;;;2.60;0.47;;;;;;;7.09;83.38;99945.09;5054151;27;96815;-29
2023/01/15 01:25:04;;;;;;;0.47;0.22;;;;;;;7.08;83.15;99945.19;5053841;27;100961;-29
2023/01/15 01:27:30;;;;;;;0.70;0.25;;;;;;;7.03;83.08;99945.47;5055011;27;99458;-29
2023/01/15 01:29:55;;;;;;;3.20;0.45;;;;;;;7.06;83.13;99949.81;5054326;27;96646;-29
2023/01/15 01:32:20;;;;;;;0.88;0.40;;;;;;;7.04;83.27;99951.72;5055023;27;99459;-29
2023/01/15 01:34:46;;;;;;;1.60;0.45;;;;;;;7.06;83.44;99958.75;5055254;27;97244;-29
2023/01/15 01:37:11;;;;;;;1.17;0.40;;;;;;;7.03;81.90;99958.91;5054939;27;99122;-29
2023/01/15 01:39:36;;;;;;;2.92;0.55;;;;;;;7.01;81.57;99958.19;5054882;27;103036;-29
2023/01/15 01:42:02;;;;;;;3.00;0.35;;;;;;;7.00;82.29;99951.03;5055203;27;98446;-29
2023/01/15 01:44:36;;;;;;;1.65;0.32;;;;;;;7.02;82.33;99958.06;5054833;27;99382;-31
2023/01/15 01:47:14;;;;;;;1.85;0.55;;;;;;;7.02;82.99;99954.50;5055013;27;97815;-29
2023/01/15 01:49:42;;;;;;;0.50;0.15;;;;;;;6.97;81.20;99946.72;5055342;27;96638;-29
2023/01/15 01:52:12;;;;;;;1.02;0.50;;;;;;;6.98;81.66;99948.47;5054903;27;96762;-29
2023/01/15 01:54:38;;;;;;;4.88;0.28;;;;;;;6.99;80.91;99947.50;5052817;27;100868;-29
2023/01/15 01:57:06;;;;;;;1.88;0.60;;;;;;;6.97;81.32;99944.03;5054823;27;97500;-29
2023/01/15 01:59:32;;;;;;;9.13;0.52;;;;;;;6.97;81.57;99957.47;5054674;27;96649;-29
2023/01/15 02:01:59;;;;;;;4.72;1.05;;;;;;;6.96;80.85;99949.50;5036527;27;96798;-28
2023/01/15 02:04:27;;;;;;;6.40;0.40;;;;;;;6.97;81.24;99943.16;5054686;27;97577;-29
2023/01/15 02:06:53;;;;;;;5.07;1.00;;;;;;;6.95;82.35;99943.25;5053355;27;101094;-30
2023/01/15 02:09:18;;;;;;;1.70;0.32;;;;;;;6.95;81.93;99950.47;5054947;27;96443;-28
2023/01/15 02:11:44;;;;;;;5.18;0.32;;;;;;;6.94;81.41;99949.59;5054976;27;96797;-30
2023/01/15 02:14:09;;;;;;;5.68;0.60;;;;;;;6.94;80.62;99948.75;5054495;27;97796;-29
2023/01/15 02:16:46;;;;;;;0.15;0.13;;;;;;;6.93;80.24;99944.31;5054590;27;97903;-29
2023/01/15 02:19:37;;;;;;;1.75;0.40;;;;;;;6.91;80.61;99943.53;5053423;27;96484;-29
2023/01/15 02:22:02;;;;;;;1.20;0.38;;;;;;;6.90;80.69;99944.50;5054485;27;96769;-29
2023/01/15 02:24:59;;;;;;;0.70;0.22;;;;;;;6.89;79.87;99943.63;5054491;27;97338;-30
2023/01/15 02:27:25;;;;;;;0.68;0.10;;;;;;;6.89;79.12;99950.81;5054645;27;97334;-29
2023/01/15 02:30:07;;;;;;;0.65;0.40;;;;;;;6.91;80.09;99952.50;5052516;27;96830;-29
2023/01/15 02:32:48;;;;;;;1.75;0.47;;;;;;;6.89;79.58;99951.72;5054718;27;96494;-29
2023/01/15 02:35:20;;;;;;;3.88;1.02;;;;;;;6.91;80.52;99951.59;5052990;27;100817;-29
2023/01/15 02:37:52;;;;;;;0.70;0.10;;;;;;;6.90;79.90;99958.81;5053183;27;101844;-29
2023/01/15 02:40:19;;;;;;;;;;;;;;;6.89;79.96;99957.09;5053400;27;96673;-29
2023/01/15 02:42:47;;;;;;;0.95;0.22;;;;;;;6.86;79.96;99953.72;5054218;27;96796;-29
2023/01/15 02:45:15;;;;;;;3.00;0.93;;;;;;;6.86;79.91;99951.00;5051821;27;101077;-29
2023/01/15 02:47:43;;;;;;;0.03;0.00;;;;;;;6.88;80.75;99951.78;5052632;27;100965;-29
2023/01/15 02:50:13;;;;;;;2.55;0.30;;;;;;;6.86;80.72;99948.31;5069752;27;96612;-29
2023/01/15 02:52:45;;;;;;;1.20;0.45;;;;;;;6.88;80.13;99946.41;5054031;27;96694;-28
2023/01/15 02:55:23;;;;;;;2.23;0.33;;;;;;;6.86;80.20;99945.63;5052399;27;101414;-30
2023/01/15 02:57:52;;;;;;;0.65;0.17;;;;;;;6.83;80.78;99935.91;5053818;27;98407;-29
2023/01/15 03:00:20;;;;;;;1.30;0.38;;;;;;;6.84;80.74;99934.09;5052604;27;96769;-30
2023/01/15 03:02:52;;;;;;;9.05;0.60;;;;;;;6.84;80.64;99934.09;5052846;27;96869;-30
2023/01/15 03:05:34;;;;;;;0.35;0.30;;;;;;;6.84;80.73;99937.66;5052433;27;100918;-29
2023/01/15 03:08:03;;;;;;;1.05;0.30;;;;;;;6.80;80.96;99936.97;5052213;27;98736;-29
2023/01/15 03:10:41;;;;;;;0.65;0.22;;;;;;;6.80;80.72;99953.13;5051898;27;97088;-28
2023/01/15 03:13:12;;;;;;;3.17;0.40;;;;;;;6.76;80.44;99932.72;5052469;27;97290;-28
2023/01/15 03:18:40;;;;;;;1.75;0.52;;;;;;;6.74;79.88;99940.03;5053372;27;96976;-29
2023/01/15 03:21:12;;;;;;;1.00;0.30;;;;;;;6.74;80.02;99933.78;5052215;27;96481;-29
2023/01/15 03:23:44;;;;;;;0.32;0.05;;;;;;;6.75;80.24;99916.69;5052071;27;96719;-30
2023/01/15 03:26:10;;;;;;;3.85;0.40;;;;;;;6.72;79.76;99923.13;5053632;27;97861;-29
2023/01/15 03:28:38;;;;;;;0.22;0.08;;;;;;;6.73;80.05;99924.84;5053327;27;98031;-29
2023/01/15 03:31:04;;;;;;;0.00;0.00;;;;;;;6.72;80.72;99930.31;5052231;27;96789;-30
2023/01/15 03:33:29;;;;;;;3.80;0.50;;;;;;;6.70;80.16;99933.13;5053237;27;96545;-29
2023/01/15 03:35:58;;;;;;;2.33;0.43;;;;;;;6.72;80.46;99933.91;5052507;27;99452;-29
2023/01/15 03:38:29;;;;;;;1.98;0.55;;;;;;;6.70;81.07;99935.81;5051813;27;100469;-29
2023/01/15 03:40:59;;;;;;;1.27;0.32;;;;;;;6.69;80.51;99930.50;5051912;27;96784;-28
2023/01/15 03:43:59;;;;;;;0.47;0.10;;;;;;;6.65;80.10;99926.25;5053100;27;96502;-29
2023/01/15 03:46:55;;;;;;;3.97;0.43;;;;;;;6.63;80.36;99918.31;5047405;27;100758;-29
2023/01/15 03:49:46;;;;;;;1.23;0.13;;;;;;;6.64;79.86;99920.03;5051610;27;101279;-29
2023/01/15 03:52:33;;;;;;;1.35;0.38;;;;;;;6.64;79.96;99920.03;5053430;27;96399;-28
2023/01/15 03:55:14;;;;;;;0.75;0.38;;;;;;;6.61;79.62;99900.53;5053319;27;96434;-29
2023/01/15 03:57:50;;;;;;;1.33;0.50;;;;;;;6.60;80.24;99913.09;5051657;27;98917;-29
2023/01/15 04:00:39;;;;;;;2.53;0.47;;;;;;;6.64;79.66;99913.78;5051353;27;101334;-29
2023/01/15 04:03:07;;;;;;;4.03;0.77;;;;;;;6.62;79.26;99919.25;5051263;27;97499;-30
2023/01/15 04:05:35;;;;;;;3.97;0.52;;;;;;;6.63;79.67;99910.22;5051600;27;96889;-29
2023/01/15 04:08:02;;;;;;;1.75;0.73;;;;;;;6.63;79.81;99915.59;5051443;27;101158;-28
2023/01/15 04:10:27;;;;;;;0.30;0.20;;;;;;;6.63;79.76;99929.06;5051264;27;100872;-28
2023/01/15 04:12:52;;;;;;;3.13;0.40;;;;;;;6.61;79.41;99936.34;5052388;27;100629;-30
2023/01/15 04:15:18;;;;;;;0.47;0.30;;;;;;;6.62;79.79;99924.63;5052392;27;103952;-29
2023/01/15 04:17:43;;;;;;;1.55;0.65;;;;;;;6.59;80.05;99916.75;5052753;27;97805;-29
2023/01/15 04:20:09;;;;;;;3.83;0.80;;;;;;;6.62;80.20;99919.25;5052865;27;99277;-30
2023/01/15 04:22:35;;;;;;;3.42;0.47;;;;;;;6.62;80.21;99929.16;5051016;27;97275;-29
2023/01/15 04:25:01;;;;;;;3.35;0.60;;;;;;;6.62;80.31;99921.06;5052654;27;96744;-29
2023/01/15 04:27:27;;;;;;;0.55;0.30;;;;;;;6.58;79.42;99926.66;5050142;27;101460;-30
2023/01/15 04:29:52;;;;;;;0.43;0.15;;;;;;;6.59;80.01;99914.06;5051948;27;99360;-29
2023/01/15 04:32:18;;;;;;;0.30;0.20;;;;;;;6.59;80.20;99911.38;5052668;27;96535;-29
2023/01/15 04:34:43;;;;;;;0.47;0.20;;;;;;;6.58;80.28;99915.88;5052804;27;96730;-29
2023/01/15 04:37:08;;;;;;;2.35;0.40;;;;;;;6.59;80.10;99925.69;5052601;27;97825;-28
2023/01/15 04:39:34;;;;;;;10.52;1.50;;;;;;;6.56;79.70;99919.63;5052151;27;110867;-29
2023/01/15 04:44:43;;;;;;;0.80;0.13;;;;;;;6.58;79.38;99925.78;5056649;27;96446;-29
2023/01/15 04:47:08;;;;;;;0.43;0.20;;;;;;;6.58;78.74;99928.47;5055720;27;109116;-29
2023/01/15 04:49:34;;;;;;;1.00;0.17;;;;;;;6.55;79.85;99913.38;5055839;27;97730;-30
2023/01/15 04:51:59;;;;;;;3.90;1.05;;;;;;;6.57;79.68;99922.22;5055560;27;96501;-30
2023/01/15 04:54:25;;;;;;;2.75;0.17;;;;;;;6.57;78.57;99916.81;5055921;27;96719;-29
2023/01/15 04:56:52;;;;;;;0.93;0.10;;;;;;;6.58;79.42;99918.56;5055832;27;97910;-29
2023/01/15 04:59:21;;;;;;;1.48;0.25;;;;;;;6.56;78.27;99909.72;5054228;27;101068;-29
2023/01/15 05:01:47;;;;;;;1.73;0.22;;;;;;;6.58;78.76;99913.19;5054486;27;96591;-28
2023/01/15 05:04:13;;;;;;;2.85;0.43;;;;;;;6.57;78.91;99913.28;5055825;27;96735;-29
2023/01/15 05:06:38;;;;;;;0.85;0.40;;;;;;;6.53;78.75;99907.22;5055698;27;97949;-29
2023/01/15 05:09:04;;;;;;;0.52;0.17;;;;;;;6.57;78.11;99924.03;5055604;27;99162;-29
2023/01/15 05:11:30;;;;;;;2.03;0.30;;;;;;;6.53;77.23;99915.31;5054261;27;96720;-29
2023/01/15 05:13:55;;;;;;;3.40;1.13;;;;;;;6.54;77.51;99911.63;5054257;27;96686;-29
2023/01/15 05:16:23;;;;;;;0.30;0.20;;;;;;;6.53;77.21;99907.22;5055054;27;97948;-29
2023/01/15 05:18:49;;;;;;;1.05;0.77;;;;;;;6.55;77.45;99909.81;5053967;27;100770;-28
2023/01/15 05:21:17;;;;;;;2.35;0.25;;;;;;;6.55;78.27;99899.94;5054280;27;96882;-28
2023/01/15 05:23:42;;;;;;;3.63;0.50;;;;;;;6.55;78.18;99888.28;5053476;27;97380;-30
2023/01/15 05:26:08;;;;;;;2.67;0.20;;;;;;;6.49;77.21;99889.53;5055138;27;98764;-30
2023/01/15 05:28:33;;;;;;;5.15;0.28;;;;;;;6.50;77.19;99901.16;5054697;27;99425;-28
2023/01/15 05:31:05;;;;;;;1.30;0.40;;;;;;;6.46;76.27;99895.09;5055637;27;96587;-29
2023/01/15 05:33:31;;;;;;;0.00;0.00;;;;;;;6.42;76.69;99890.00;5054222;27;96791;-29
2023/01/15 05:36:00;;;;;;;0.40;0.13;;;;;;;6.44;76.41;99894.31;5055229;27;97324;-29
2023/01/15 05:38:26;;;;;;;2.20;0.40;;;;;;;6.41;76.64;99888.25;5053781;27;101085;-29
2023/01/15 05:40:51;;;;;;;0.90;0.28;;;;;;;6.34;74.78;99890.44;5054800;27;99844;-29
2023/01/15 05:43:16;;;;;;;2.63;0.68;;;;;;;6.34;76.85;99902.09;5054866;27;98910;-28
2023/01/15 05:45:41;;;;;;;0.68;0.13;;;;;;;6.36;75.70;99901.97;5054889;27;101582;-29
2023/01/15 05:48:07;;;;;;;0.20;0.10;;;;;;;6.35;75.94;99903.81;5054908;27;103974;-30
2023/01/15 05:50:32;;;;;;;2.67;0.13;;;;;;;6.30;75.40;99895.16;5054846;27;103088;-29
2023/01/15 05:52:57;;;;;;;1.52;0.35;;;;;;;6.29;76.37;99905.97;5053642;27;99471;-29
2023/01/15 05:55:23;;;;;;;1.98;0.28;;;;;;;6.27;75.36;99910.56;5054750;27;107091;-29
2023/01/15 05:57:48;;;;;;;1.33;0.08;;;;;;;6.27;75.12;99913.28;5054888;27;99306;-30
2023/01/15 06:00:14;;;;;;;1.85;0.45;;;;;;;6.25;75.75;99913.38;5055103;27;96406;-29
2023/01/15 06:02:39;;;;;;;2.83;0.52;;;;;;;6.28;74.87;99915.03;5054730;27;96837;-29
2023/01/15 06:05:05;;;;;;;1.13;0.28;;;;;;;6.25;74.45;99910.69;5054371;27;97875;-29
2023/01/15 06:07:30;;;;;;;0.98;0.17;;;;;;;6.25;73.74;99908.00;5054691;27;97420;-28
2023/01/15 06:09:55;;;;;;;0.32;0.15;;;;;;;6.25;73.35;99908.00;5054586;27;103277;-29
2023/01/15 06:12:20;;;;;;;0.25;0.10;;;;;;;6.26;74.28;99923.16;5054528;27;102521;-29
2023/01/15 06:14:46;;;;;;;0.77;0.05;;;;;;;6.22;73.77;99910.88;5054124;27;108180;-29
2023/01/15 06:17:13;;;;;;;0.70;0.15;;;;;;;6.22;74.48;99928.81;5054181;27;107013;-30
2023/01/15 06:19:39;;;;;;;0.55;0.15;;;;;;;6.19;73.32;99924.47;5054765;27;96579;-29
2023/01/15 06:22:04;;;;;;;0.65;0.40;;;;;;;6.15;74.46;99920.25;5054642;27;96891;-28
2023/01/15 06:24:29;;;;;;;0.28;0.10;;;;;;;6.15;74.14;99928.31;5054417;27;97982;-29
2023/01/15 06:26:55;;;;;;;2.50;0.57;;;;;;;6.14;74.56;99934.63;5054456;27;97339;-29
2023/01/15 06:29:20;;;;;;;0.22;0.22;;;;;;;6.12;75.10;99929.34;5053206;27;101987;-28
2023/01/15 06:31:46;;;;;;;0.17;0.10;;;;;;;6.10;74.84;99935.75;5054572;27;96756;-28
2023/01/15 06:34:12;;;;;;;1.98;0.30;;;;;;;6.09;74.39;99947.50;5052826;27;101063;-29
2023/01/15 06:36:37;;;;;;;0.40;0.05;;;;;;;6.08;75.06;99945.75;5053882;27;101691;-30
2023/01/15 06:39:03;;;;;;;0.82;0.38;;;;;;;6.04;74.18;99934.31;5052920;27;96636;-29
2023/01/15 06:47:20;;;;;;;2.20;0.25;;;;;;;6.02;74.44;99933.53;5054600;27;97020;-29
2023/01/15 06:49:45;;;;;;;4.72;0.63;;;;;;;6.05;75.00;99937.84;5054117;27;96525;-29
2023/01/15 06:52:11;;;;;;;0.25;0.10;;;;;;;6.02;75.39;99929.97;5053936;27;97078;-29
2023/01/15 06:54:36;;;;;;;0.05;0.03;;;;;;;6.02;75.80;99933.53;5053230;27;99218;-29
2023/01/15 06:57:02;;;;;;;0.38;0.05;;;;;;;5.98;74.86;99936.47;5053611;27;99177;-29
2023/01/15 06:59:27;;;;;;;0.00;0.00;;;;;;;5.98;75.68;99940.03;5035555;27;96742;-28
2023/01/15 07:01:53;;;;;;;2.63;0.30;;;;;;;5.99;75.11;99940.91;5054114;27;96703;-28
2023/01/15 07:04:18;;;;;;;0.68;0.25;;;;;;;5.96;74.63;99936.59;5053612;27;97987;-29
2023/01/15 07:06:43;;;;;;;1.65;0.38;;;;;;;5.96;74.45;99928.53;5053926;27;97293;-29
2023/01/15 07:09:09;;;;;;;0.20;0.10;;;;;;;5.96;74.56;99915.09;5053949;27;96606;-29
2023/01/15 07:11:34;;;;;;;4.70;0.25;;;;;;;5.93;74.26;99915.19;5054568;27;96777;-28
2023/01/15 07:14:05;;;;;;;0.43;0.10;;;;;;;5.88;74.33;99915.47;5053347;27;98989;-29
2023/01/15 07:16:32;;;;;;;0.10;0.10;;;;;;;5.90;73.53;99923.44;5052112;27;100759;-29
2023/01/15 07:18:58;;;;;;;0.25;0.22;;;;;;;5.85;74.19;99909.41;5051916;27;96633;-29
2023/01/15 07:21:24;;;;;;;3.20;0.40;;;;;;;5.84;74.74;99919.31;5053602;27;96753;-28
2023/01/15 07:23:49;;;;;;;1.48;0.52;;;;;;;5.83;74.11;99909.50;5053238;27;97429;-29
2023/01/15 07:26:14;;;;;;;0.50;0.13;;;;;;;5.82;73.99;99923.03;5052131;27;101457;-29
2023/01/15 07:28:40;;;;;;;1.00;0.52;;;;;;;5.83;74.24;99922.94;5053062;27;96770;-29
2023/01/15 07:31:05;;;;;;;2.25;0.20;;;;;;;5.81;73.71;99916.78;5053734;27;96551;-29
2023/01/15 07:33:30;;;;;;;0.10;0.10;;;;;;;5.79;73.29;99915.97;5053401;27;97890;-29
2023/01/15 07:35:56;;;;;;;2.45;0.22;;;;;;;5.77;73.04;99917.91;5053570;27;97742;-30
2023/01/15 07:38:22;;;;;;;0.57;0.20;;;;;;;5.79;73.45;99921.34;5051810;27;101443;-29
2023/01/15 07:49:44;;;;;;;1.85;0.15;;;;;;;5.82;73.97;99923.91;5051908;27;96660;-30
2023/01/15 07:51:45;;;;;;;0.00;0.00;;;;;;;5.82;74.06;99926.59;5053245;27;96479;-28
2023/01/15 07:54:10;;;;;;;1.08;0.30;;;;;;;5.83;73.94;99930.13;5052410;27;109033;-28
2023/01/15 07:56:36;;;;;;;2.58;0.30;;;;;;;5.82;73.54;99929.28;5052839;27;97830;-29
2023/01/15 07:59:02;;;;;;;8.05;1.23;;;;;;;5.83;73.48;99927.44;5053284;27;96507;-29
2023/01/15 08:01:27;;;;;;;1.23;0.50;;;;;;;5.83;73.47;99922.94;5051992;27;96778;-29
2023/01/15 08:03:52;;;;;;;2.47;0.60;;;;;;;5.86;74.62;99921.88;5052737;27;104158;-29
2023/01/15 08:06:18;;;;;;;2.67;0.98;;;;;;;5.87;73.26;99919.13;5052563;27;99069;-29
2023/01/15 08:08:43;;;;;;;6.55;1.00;;;;;;;5.87;74.01;99929.88;5052502;27;96628;-30
2023/01/15 08:16:36;;;;;;;1.25;0.73;;;;;;;6.00;74.48;99924.69;5051728;27;97020;-29
2023/01/15 08:19:02;;;;;;;0.77;0.52;;;;;;;6.00;73.96;99931.88;5052489;27;96514;-30
2023/01/15 08:21:28;;;;;;;1.42;0.77;;;;;;;6.04;74.74;99937.00;5051330;27;96771;-29
2023/01/15 08:23:53;;;;;;;4.95;0.80;;;;;;;6.07;73.98;99935.94;5052209;27;100069;-29
2023/01/15 08:26:18;;;;;;;2.38;0.32;;;;;;;6.06;74.31;99920.78;5051352;27;100772;-29
2023/01/15 08:28:44;;;;;;;3.53;1.13;;;;;;;6.10;74.32;99928.59;5052170;27;96691;-28
2023/01/15 08:31:09;;;;;;;0.80;0.47;;;;;;;6.11;74.31;99922.25;5052207;27;96796;-28
2023/01/15 08:33:34;;;;;;;7.25;0.93;;;;;;;6.15;74.55;99928.31;5052056;27;97901;-29
2023/01/15 08:36:00;;;;;;;0.00;0.00;;;;;;;6.16;74.46;99924.66;5051884;27;111256;-29
2023/01/15 08:38:25;;;;;;;5.78;0.85;;;;;;;6.22;74.57;99927.00;5052269;27;96453;-31
2023/01/15 08:41:01;;;;;;;0.98;0.50;;;;;;;6.22;74.40;99918.94;5052458;27;96763;-29
2023/01/15 08:43:28;;;;;;;3.85;0.50;;;;;;;6.26;73.88;99931.22;5050971;27;101074;-32
2023/01/15 08:45:58;;;;;;;4.97;0.45;;;;;;;6.33;74.63;99921.84;5050469;27;101107;-28
2023/01/15 08:48:25;;;;;;;1.02;0.28;;;;;;;6.43;74.84;99926.69;5050984;27;96524;-28
2023/01/15 08:50:50;;;;;;;1.60;0.30;;;;;;;6.45;74.38;99924.78;5051370;27;96900;-29
2023/01/15 08:53:18;;;;;;;0.30;0.15;;;;;;;6.46;74.19;99927.38;5050856;27;100876;-30
2023/01/15 08:55:44;;;;;;;0.85;0.40;;;;;;;6.49;73.90;99931.72;5050667;27;100866;-29
2023/01/15 08:58:09;;;;;;;0.63;0.22;;;;;;;6.49;74.12;99926.34;5051572;27;96765;-29
2023/01/15 09:00:35;;;;;;;1.30;0.52;;;;;;;6.47;74.06;99937.19;5051979;27;96789;-29
2023/01/15 09:03:00;;;;;;;0.45;0.13;;;;;;;6.49;73.68;99921.81;5051950;27;98965;-29
2023/01/15 09:05:26;;;;;;;0.82;0.47;;;;;;;6.53;73.30;99923.38;5052078;27;97763;-29
2023/01/15 09:07:52;;;;;;;4.72;0.75;;;;;;;6.56;73.96;99925.88;5052088;27;96558;-29
2023/01/15 09:10:18;;;;;;;2.15;0.47;;;;;;;6.58;73.29;99920.41;5052046;27;96471;-29
2023/01/15 09:12:43;;;;;;;1.23;0.32;;;;;;;6.57;73.43;99913.28;5051571;27;99137;-29
2023/01/15 09:15:09;;;;;;;5.55;0.50;;;;;;;6.55;73.94;99921.47;5052161;27;99338;-31
2023/01/15 09:17:39;;;;;;;3.00;0.60;;;;;;;6.57;73.65;99905.22;5051818;27;96461;-30
2023/01/15 09:20:09;;;;;;;3.00;0.60;;;;;;;6.59;73.86;99904.16;5051977;27;96705;-28
2023/01/15 09:22:34;;;;;;;6.03;0.30;;;;;;;6.59;73.01;99911.38;5049475;27;102114;-30
2023/01/15 09:25:00;;;;;;;2.47;0.50;;;;;;;6.61;72.86;99908.59;5051656;27;99124;-29
2023/01/15 09:27:27;;;;;;;1.75;0.63;;;;;;;6.62;73.28;99913.00;5052934;27;96699;-29
2023/01/15 09:29:52;;;;;;;0.50;0.30;;;;;;;6.64;73.61;99919.16;5053393;27;96878;-29
2023/01/15 09:32:17;;;;;;;2.72;0.30;;;;;;;6.58;74.44;99932.03;5055342;27;97883;-28
2023/01/15 09:34:43;;;;;;;1.58;0.63;;;;;;;6.54;74.45;99926.91;5055350;27;97359;-29
2023/01/15 09:37:08;;;;;;;2.50;0.28;;;;;;;6.52;74.52;99923.44;5055166;27;99902;-29
2023/01/15 09:39:35;;;;;;;3.78;1.15;;;;;;;6.50;74.80;99920.84;5054283;27;96800;-28
2023/01/15 09:42:26;;;;;;;0.95;0.45;;;;;;;6.56;75.10;99928.56;5053462;27;100753;-29
2023/01/15 09:45:12;;;;;;;1.30;0.43;;;;;;;6.58;74.44;99932.03;5054560;27;98772;-29
2023/01/15 09:47:58;;;;;;;1.15;0.38;;;;;;;6.75;74.55;99938.22;5054597;27;96480;-29
2023/01/15 09:50:28;;;;;;;6.22;0.35;;;;;;;6.85;73.93;99935.84;5036598;27;96745;-28
2023/01/15 09:53:11;;;;;;;1.83;0.32;;;;;;;6.81;74.52;99925.22;5054802;27;98104;-29
2023/01/15 09:55:44;;;;;;;2.10;0.10;;;;;;;6.72;74.48;99923.13;5053523;27;101040;-28
2023/01/15 09:58:12;;;;;;;4.68;0.63;;;;;;;6.66;74.79;99928.88;5053572;27;96606;-29
2023/01/15 10:00:44;;;;;;;6.65;0.90;;;;;;;6.72;74.97;99938.38;5053150;27;96579;-29
2023/01/15 10:03:09;;;;;;;;;;;;;;;6.77;74.39;99926.41;5053743;27;100855;-29
2023/01/15 10:05:42;;;;;;;0.40;0.30;;;;;;;6.83;74.52;99927.00;5055257;27;97130;-28
2023/01/15 10:08:16;;;;;;;1.13;0.38;;;;;;;6.84;74.39;99943.06;5053481;27;96643;-29
2023/01/15 10:10:46;;;;;;;1.33;0.28;;;;;;;6.86;74.82;99948.31;5054536;27;96633;-29
2023/01/15 10:13:45;;;;;;;6.30;0.73;;;;;;;6.80;74.65;99950.44;5053791;27;99521;-28
2023/01/15 10:16:18;;;;;;;1.13;0.32;;;;;;;6.82;74.85;99955.75;5054468;27;97870;-29
2023/01/15 10:18:44;;;;;;;1.15;0.73;;;;;;;6.78;75.02;99948.78;5054620;27;96510;-30
2023/01/15 10:21:09;;;;;;;3.05;0.98;;;;;;;6.77;74.88;99958.69;5053177;27;96785;-29
2023/01/15 10:24:07;;;;;;;1.02;0.40;;;;;;;6.79;74.89;99975.63;5054458;27;97425;-29
2023/01/15 10:26:39;;;;;;;1.15;0.55;;;;;;;6.85;75.07;99960.94;5054480;27;97930;-29
2023/01/15 10:29:35;;;;;;;8.25;0.88;;;;;;;6.94;74.99;99957.69;5052869;27;96827;-29
2023/01/15 10:32:09;;;;;;;3.92;0.35;;;;;;;7.12;74.56;99973.66;5053213;27;96766;-29
2023/01/15 10:35:03;;;;;;;3.45;0.90;;;;;;;7.27;74.47;99969.13;5054563;27;97369;-29
2023/01/15 10:37:40;;;;;;;2.20;0.22;;;;;;;7.18;73.92;99960.69;5052792;27;98858;-28
2023/01/15 10:40:15;;;;;;;2.20;0.32;;;;;;;7.11;74.36;99974.63;5051881;27;96808;-29
2023/01/15 10:42:40;;;;;;;0.47;0.47;;;;;;;7.10;74.68;99987.19;5052950;27;96728;-30
2023/01/15 10:45:09;;;;;;;1.77;0.60;;;;;;;7.11;74.80;99966.56;5054130;27;97795;-29
2023/01/15 10:47:36;;;;;;;0.22;0.08;;;;;;;7.08;74.39;99981.06;5052613;27;100892;-29
2023/01/15 10:50:16;;;;;;;2.90;0.73;;;;;;;7.02;74.33;99968.84;5052840;27;96722;-30
2023/01/15 10:52:46;;;;;;;0.20;0.10;;;;;;;6.97;74.48;99970.09;5053870;27;96592;-28
2023/01/15 10:55:33;;;;;;;3.35;1.13;;;;;;;6.99;73.65;99965.47;5052584;27;100580;-29
2023/01/15 10:58:27;;;;;;;0.32;0.13;;;;;;;6.99;74.39;99966.34;5052782;27;100720;-29
2023/01/15 11:00:59;;;;;;;5.07;0.63;;;;;;;6.97;74.43;99975.47;5052550;27;96648;-30
2023/01/15 11:03:35;;;;;;;0.30;0.30;;;;;;;6.88;74.72;99976.88;5052565;27;96690;-29
2023/01/15 11:06:00;;;;;;;0.57;0.32;;;;;;;6.87;74.91;99979.69;5051987;27;100832;-29
2023/01/15 11:08:29;;;;;;;3.40;0.75;;;;;;;7.14;74.46;99974.44;5053980;27;97263;-29
2023/01/15 11:10:57;;;;;;;5.18;0.70;;;;;;;7.16;74.40;99964.44;5052476;27;96597;-29
2023/01/15 11:21:48;;;;;;;0.95;0.20;;;;;;;7.44;74.68;99961.75;5053719;27;96439;-29
2023/01/15 11:24:16;;;;;;;3.08;0.82;;;;;;;7.58;74.32;99958.19;5052464;27;96631;-29
2023/01/15 11:26:46;;;;;;;0.63;0.25;;;;;;;7.77;74.14;99963.28;5052105;27;100711;-29
2023/01/15 11:29:29;;;;;;;1.40;0.43;;;;;;;7.80;74.03;99952.28;5051088;27;100752;-29
2023/01/15 11:31:54;;;;;;;3.22;0.28;;;;;;;7.73;74.64;99953.66;5053235;27;96433;-29
2023/01/15 11:34:21;;;;;;;0.10;0.10;;;;;;;7.70;74.85;99958.34;5053170;27;96736;-30
2023/01/15 11:36:46;;;;;;;0.40;0.10;;;;;;;7.75;74.87;99946.34;5051793;27;100966;-31
2023/01/15 11:39:27;;;;;;;0.65;0.20;;;;;;;7.68;74.92;99942.31;5053011;27;100560;-29
2023/01/15 11:50:47;;;;;;;0.20;0.20;;;;;;;7.07;79.09;99949.69;5052390;27;97024;-30
2023/01/15 11:53:19;;;;;;;2.38;0.55;;;;;;;7.12;79.74;99942.19;5051176;27;96609;-29
2023/01/15 11:56:00;;;;;;;0.05;0.00;;;;;;;7.08;79.92;99969.41;5051547;27;96793;-29
2023/01/15 11:58:28;;;;;;;1.05;0.28;;;;;;;6.96;79.33;99949.50;5048781;27;101247;-32
2023/01/15 12:00:56;;;;;;;1.95;0.63;;;;;;;6.86;79.92;99954.56;5050364;27;97306;-30
2023/01/15 12:03:25;;;;;;;2.88;0.35;;;;;;;6.85;80.77;99963.63;5048909;27;97015;-29
2023/01/15 12:06:13;;;;;;;0.68;0.25;;;;;;;6.78;80.66;99970.31;5048928;27;97083;-32
2023/01/15 12:08:49;;;;;;;0.93;0.28;;;;;;;6.68;81.45;99959.25;5048852;27;101069;-32
2023/01/15 12:11:21;;;;;;;0.65;0.13;;;;;;;6.70;81.56;99960.03;5050366;27;99152;-29
2023/01/15 12:14:08;;;;;;;0.63;0.20;;;;;;;6.60;82.25;99956.13;5052735;27;96915;-29
2023/01/15 12:16:49;;;;;;;1.08;0.52;;;;;;;6.54;82.92;99951.13;5051715;27;96659;-28
2023/01/15 12:19:32;;;;;;;3.17;0.60;;;;;;;6.55;83.20;99964.50;5051428;27;100738;-28
2023/01/15 12:22:09;;;;;;;0.50;0.32;;;;;;;6.53;83.59;99960.16;5050982;27;99157;-29
2023/01/15 12:24:56;;;;;;;6.88;0.45;;;;;;;6.55;83.00;99974.38;5050685;27;97837;-29
2023/01/15 12:28:01;;;;;;;1.17;0.38;;;;;;;6.56;83.94;99973.44;5052594;27;96731;-29
2023/01/15 12:30:38;;;;;;;5.90;0.93;;;;;;;6.57;84.82;99970.63;5050730;27;100873;-29
2023/01/15 12:33:17;;;;;;;0.77;0.38;;;;;;;6.62;84.20;99983.81;5051160;27;99340;-29
2023/01/15 12:35:55;;;;;;;5.72;0.68;;;;;;;6.65;83.66;99963.94;5051011;27;96619;-29
2023/01/15 12:38:40;;;;;;;0.70;0.40;;;;;;;6.66;83.74;99977.31;5051072;27;96730;-29